WetterOnline ( https://www.wetteronline.de )

Wetter aktuell Mittelndorf

Aktuelles Wetter: Lichtenhain/Mittelndorf (352m)

6-stündlich | Neueste Meldungen
Ortszeit Temperatur Wetter
Sa, 25.05. 20:00 16.5° C wolkig
Sa, 25.05. 14:00 17.0° C bedeckt
Sa, 25.05. 8:00 11.4° C leicht bewölkt
Sa, 25.05. 2:00 11.7° C wolkig
Fr, 24.05. 20:00 18.6° C bedeckt
Fr, 24.05. 14:00 19.2° C leicht bewölkt
Fr, 24.05. 8:00 10.9° C wolkig
Fr, 24.05. 2:00 7.0° C leicht bewölkt
Ortszeit Temperatur Wetter
So, 26.05. 0:30 11.4° C bewölkt
So, 26.05. 0:20 11.4° C bewölkt
So, 26.05. 0:10 11.6° C bewölkt
So, 26.05. 0:00 12.0° C bewölkt
Sa, 25.05. 23:50 12.0° C bewölkt
Sa, 25.05. 23:40 11.8° C wolkig
Sa, 25.05. 23:30 11.5° C fast wolkenlos
Sa, 25.05. 23:00 12.1° C wolkenlos
Sa, 25.05. 22:30 13.3° C wolkenlos
Sa, 25.05. 22:00 13.7° C wolkenlos
Sa, 25.05. 21:30 14.0° C wolkenlos
Ortszeit Relative Feuchte Sichtweite
Sa, 25.05. 20:00 65% 17 km
Sa, 25.05. 14:00 60% 30 km
Sa, 25.05. 8:00 85% 12 km
Sa, 25.05. 2:00 82% 20 km
Fr, 24.05. 20:00 52% 35 km
Fr, 24.05. 14:00 44% 35 km
Fr, 24.05. 8:00 74% 50 km
Fr, 24.05. 2:00 82% 50 km
Ortszeit Relative Feuchte Sichtweite
So, 26.05. 0:30 80% 19 km
So, 26.05. 0:20 80% -
So, 26.05. 0:10 79% -
So, 26.05. 0:00 78% 18 km
Sa, 25.05. 23:50 78% -
Sa, 25.05. 23:40 77% -
Sa, 25.05. 23:30 80% 14 km
Sa, 25.05. 23:00 81% 13 km
Sa, 25.05. 22:30 75% 14 km
Sa, 25.05. 22:00 73% 16 km
Sa, 25.05. 21:30 73% 16 km
Ortszeit Niederschlagsmenge Niederschlagsart
Sa, 25.05. 20:00 0.0 l/m2 in 12 Std. -
Sa, 25.05. 14:00 0.0 l/m2 in 6 Std. -
Sa, 25.05. 8:00 0.0 l/m2 in 12 Std. -
Sa, 25.05. 2:00 0.0 l/m2 in 6 Std. -
Fr, 24.05. 20:00 0.0 l/m2 in 12 Std. -
Fr, 24.05. 14:00 0.0 l/m2 in 6 Std. -
Fr, 24.05. 8:00 0.0 l/m2 in 12 Std. -
Fr, 24.05. 2:00 0.0 l/m2 in 6 Std. -
Ortszeit Niederschlagsmenge Niederschlagsart
So, 26.05. 0:30 0.0 l/m2 in 1 Std. -
So, 26.05. 0:20 keine Meldung -
So, 26.05. 0:10 keine Meldung -
So, 26.05. 0:00 0.0 l/m2 in 1 Std. -
Sa, 25.05. 23:50 keine Meldung -
Sa, 25.05. 23:40 keine Meldung -
Sa, 25.05. 23:30 0.0 l/m2 in 1 Std. -
Sa, 25.05. 23:00 0.0 l/m2 in 1 Std. -
Sa, 25.05. 22:30 0.0 l/m2 in 1 Std. -
Sa, 25.05. 22:00 0.0 l/m2 in 1 Std. -
Sa, 25.05. 21:30 0.0 l/m2 in 1 Std. -
Ortszeit Stärke Spitze Richtung
km/h Bft. km/h Grad Sektor
Sa, 25.05. 20:00 22 4 29 330° NW
Sa, 25.05. 14:00 17 3 26 330° NW
Sa, 25.05. 8:00 0 0 7 - -
Sa, 25.05. 2:00 4 1 14 110° O
Fr, 24.05. 20:00 9 2 30 320° NW
Fr, 24.05. 14:00 11 2 29 280° W
Fr, 24.05. 8:00 4 1 7 110° O
Fr, 24.05. 2:00 4 1 18 120° SO
Ortszeit Stärke Spitze Richtung
km/h Bft. km/h Grad Sektor
So, 26.05. 0:30 7 2 14 290° W
So, 26.05. 0:20 7 2 - 290° W
So, 26.05. 0:10 7 2 - 280° W
So, 26.05. 0:00 6 1 11 280° W
Sa, 25.05. 23:50 6 1 - 280° W
Sa, 25.05. 23:40 7 2 - 290° W
Sa, 25.05. 23:30 7 2 11 290° W
Sa, 25.05. 23:00 7 2 7 300° NW
Sa, 25.05. 22:30 2 1 7 20° N
Sa, 25.05. 22:00 7 2 14 340° N
Sa, 25.05. 21:30 11 2 14 340° N
Ortszeit Untergrenze Bedeckung Gattung
total tief tief mittel hoch
Sa, 25.05. 20:00 1080 m 8/8 2/8 - - -
Sa, 25.05. 14:00 4500 m 8/8 8/8 - - -
Sa, 25.05. 8:00 2700 m 2/8 1/8 - - -
Sa, 25.05. 2:00 5100 m 8/8 1/8 - - -
Fr, 24.05. 20:00 3900 m 8/8 8/8 - - -
Fr, 24.05. 14:00 1500 m 5/8 3/8 - - -
Fr, 24.05. 8:00 6300 m 8/8 8/8 - - -
Fr, 24.05. 2:00 6900 m 1/8 5/8 - - -
Ortszeit Bedeckungsgrad in Achtel und Wolkenuntergrenze
So, 26.05. 0:30 7(1020m)
So, 26.05. 0:20 7(1020m)
So, 26.05. 0:10 7(1020m)
So, 26.05. 0:00 7(960m)
Sa, 25.05. 23:50 7(960m)
Sa, 25.05. 23:40 5(960m)
Sa, 25.05. 23:30 3(930m)
Sa, 25.05. 23:00 keine Wolken
Sa, 25.05. 22:30 keine Wolken
Sa, 25.05. 22:00 keine Wolken
Sa, 25.05. 21:30 keine Wolken
Ortszeit Luftdruck NN (hPa) Tendenz (hPa in 3 Std.)
Sa, 25.05. 20:00 1014 0,0
Sa, 25.05. 14:00 1015 0,0
Sa, 25.05. 8:00 1014 + 0,7
Sa, 25.05. 2:00 1014 + 0,4
Fr, 24.05. 20:00 1012 - 0,8
Fr, 24.05. 14:00 1014 - 1,2
Fr, 24.05. 8:00 1017 - 0,3
Fr, 24.05. 2:00 1018 - 0,3
Ortszeit Luftdruck NN (hPa) Tendenz (hPa in 3 Std.)
So, 26.05. 0:30 1017 + 1,5
So, 26.05. 0:20 1017 keine Meldung
So, 26.05. 0:10 1017 keine Meldung
So, 26.05. 0:00 1017 + 1,5
Sa, 25.05. 23:50 1017 keine Meldung
Sa, 25.05. 23:40 1017 keine Meldung
Sa, 25.05. 23:30 1017 + 1,3
Sa, 25.05. 23:00 1016 + 1,1
Sa, 25.05. 22:30 1015 + 0,9
Sa, 25.05. 22:00 1015 + 0,9
Sa, 25.05. 21:30 1015 + 0,7
Ortszeit Schneehöhe (cm)
Sa, 25.05. 20:00 -
Sa, 25.05. 14:00 -
Sa, 25.05. 8:00 -
Sa, 25.05. 2:00 -
Fr, 24.05. 20:00 -
Fr, 24.05. 14:00 -
Fr, 24.05. 8:00 -
Fr, 24.05. 2:00 -
Ortszeit Schneehöhe (cm)
So, 26.05. 0:30 -
So, 26.05. 0:20 -
So, 26.05. 0:10 -
So, 26.05. 0:00 -
Sa, 25.05. 23:50 -
Sa, 25.05. 23:40 -
Sa, 25.05. 23:30 -
Sa, 25.05. 23:00 -
Sa, 25.05. 22:30 -
Sa, 25.05. 22:00 -
Sa, 25.05. 21:30 -
Link zu dieser Seite / Seite empfehlen

Das Wetter in ...